Hoboken, NJ

8:53 PM EDT on July 29, 2016 (GMT -0400)
4th & Garden St. | | Change Station

Elev 23 ft 40.74 °N, 74.03 °W | Updated 12 seconds ago

Scattered Clouds
Scattered Clouds
79.7 °F
Feels Like 82 °F
N
0.2
Wind Variable Wind from West
Gusts 1.2 mph

Today
High -- | Low -- °F
--% Chance of Precip.
Yesterday
High -- | Low -- °F
Precip. -- in
Pressure 29.89 in
Visibility 9.0 miles
Clouds Scattered Clouds 12000 ft
Heat Index 82 °F
Dew Point 69 °F
Humidity 70%
Rainfall 0.86 in
Snow Depth Not available.
5:50 AM 8:14 PM
Waning Crescent, 17% visible
METAR KNYC 300051Z AUTO 17003KT 9SM SCT120 26/19 A2992 RMK AO2 SLP120 T02560194 $
Pressure 29.89 in
Visibility 9.0 miles
Clouds Scattered Clouds 12000 ft
Heat Index 82 °F
Dew Point 69 °F
Humidity 70%
Rainfall 0.86 in
Snow Depth Not available.
5:50 AM 8:14 PM
Waning Crescent, 17% visible
METAR KNYC 300051Z AUTO 17003KT 9SM SCT120 26/19 A2992 RMK AO2 SLP120 T02560194 $

10-Day Weather Forecast

Almanac

Astronomy

Jul. 29, 2016 Rise Set
Actual Time
Civil Twilight
Nautical Twilight
Astronomical Twilight
Moon
Length of Visible Light
Length of Day
Tomorrow will be .
, % of the Moon is Illuminated

Today's Extremes

State Highs State Lows

Community

WunderPhotos

Upload Photos

1,928,457 photos uploaded!

WunderBlog® & News

Nearby

Air Quality

  Air Quality AQ Index Pollutant
Not available.

Snow Depth

Station Depth Elevation

Earthquake Activity

City Distance Mag. Time & Date
Minimum magnitude displayed is 2.5.

Coastal Water Temperatures

Place Temperature

Stations

Nearby Weather Stations

Station Location Temp. Windchill Dew Point Humidity Wind Precip. Elev Updated Type
                   

Watches & Warnings

There are currently no watches in effect.